Time;durP1;ratioP1;P1;durP2;ratioP2;P2;SDS_P1;SDS_P2;PMS_P1;PMS_P2;Temp;Humidity;BMP_temperature;BMP_pressure;BME280_temperature;BME280_humidity;BME280_pressure;Samples;Min_cycle;Max_cycle;Signal;HPM_P1;HPM_P2
2023/03/09 00:01:46;;;;;;;10.87;7.47;;;1.30;99.90;;;1.05;80.03;98280.91;6279591;22;20197;-66
2023/03/09 00:04:17;;;;;;;11.13;7.40;;;1.40;99.90;;;1.05;80.55;98280.91;6279586;22;20195;-67
2023/03/09 00:06:48;;;;;;;14.20;8.57;;;1.30;99.90;;;1.04;80.23;98286.81;6279265;22;20594;-68
2023/03/09 00:09:17;;;;;;;13.73;8.97;;;1.40;99.90;;;1.02;80.38;98288.50;6279345;22;20180;-66
2023/03/09 00:11:48;;;;;;;12.07;7.73;;;1.30;99.90;;;1.04;80.56;98291.91;6278889;22;20176;-65
2023/03/09 00:14:21;;;;;;;13.07;9.03;;;1.30;99.90;;;1.02;80.63;98283.44;6279035;22;20201;-66
2023/03/09 00:16:49;;;;;;;14.00;9.13;;;1.30;99.90;;;1.00;80.99;98287.69;6279134;22;20172;-67
2023/03/09 00:19:20;;;;;;;13.97;9.47;;;1.30;99.90;;;0.97;80.73;98283.44;6279124;22;20169;-66
2023/03/09 00:21:51;;;;;;;16.37;10.87;;;1.30;99.90;;;0.99;80.52;98296.09;6279424;22;20244;-67
2023/03/09 00:24:24;;;;;;;13.60;9.60;;;1.30;99.90;;;0.98;80.92;98284.28;6279467;22;20236;-67
2023/03/09 00:26:55;;;;;;;13.47;9.90;;;1.30;99.90;;;0.98;80.98;98296.97;6279341;22;20532;-66
2023/03/09 00:29:25;;;;;;;15.40;10.37;;;1.30;99.90;;;0.98;80.78;98290.19;6279315;22;20192;-68
2023/03/09 00:31:54;;;;;;;14.47;9.87;;;1.30;99.90;;;0.95;80.97;98290.19;6278911;22;20235;-67
2023/03/09 00:34:23;;;;;;;15.33;9.73;;;1.30;99.90;;;0.95;80.94;98287.66;6278094;22;20193;-68
2023/03/09 00:36:53;;;;;;;16.10;10.57;;;1.20;99.90;;;0.93;81.25;98277.53;6284830;22;20599;-68
2023/03/09 00:39:21;;;;;;;14.90;10.47;;;1.20;99.90;;;0.94;81.36;98281.75;6288784;22;20177;-68
2023/03/09 00:41:50;;;;;;;14.13;10.20;;;1.20;99.90;;;0.94;81.16;98279.22;6288286;22;20201;-69
2023/03/09 00:44:18;;;;;;;15.93;10.43;;;1.20;99.90;;;0.93;81.30;98285.13;6288493;22;20169;-69
2023/03/09 00:46:47;;;;;;;15.73;10.67;;;1.20;99.90;;;0.94;81.73;98279.22;6288399;22;20199;-68
2023/03/09 00:49:16;;;;;;;13.23;9.40;;;1.20;99.90;;;0.93;81.85;98281.75;6288584;22;20218;-67
2023/03/09 00:51:45;;;;;;;14.13;10.23;;;1.20;99.90;;;0.89;81.65;98270.78;6288516;22;20195;-68
2023/03/09 00:54:15;;;;;;;17.50;10.90;;;1.20;99.90;;;0.88;81.46;98266.53;6286788;22;20610;-68
2023/03/09 00:56:44;;;;;;;15.30;9.70;;;1.20;99.90;;;0.87;81.85;98256.41;6287826;22;20184;-68
2023/03/09 00:59:12;;;;;;;14.80;10.77;;;1.20;99.90;;;0.87;81.90;98256.41;6287791;22;20184;-68
2023/03/09 01:01:41;;;;;;;14.97;10.50;;;1.20;99.90;;;0.85;81.67;98250.50;6288456;22;20176;-69
2023/03/09 01:04:10;;;;;;;15.20;10.47;;;1.10;99.90;;;0.84;82.15;98247.09;6288501;22;20179;-68
2023/03/09 01:06:39;;;;;;;13.60;9.77;;;1.20;99.90;;;0.85;81.73;98247.97;6288639;22;20176;-70
2023/03/09 01:09:09;;;;;;;15.43;9.93;;;1.20;99.90;;;0.87;81.75;98249.66;6287651;22;20680;-68
2023/03/09 01:11:39;;;;;;;15.20;9.73;;;1.20;99.90;;;0.88;82.15;98248.78;6288535;22;20168;-69
2023/03/09 01:14:08;;;;;;;14.63;9.87;;;1.20;99.90;;;0.89;82.72;98245.44;6287985;22;20230;-68
2023/03/09 01:16:36;;;;;;;14.27;9.93;;;1.20;99.90;;;0.89;81.79;98242.91;6288340;22;20203;-68
2023/03/09 01:19:04;;;;;;;16.83;10.37;;;1.20;99.90;;;0.90;81.94;98243.72;6288315;22;20438;-68
2023/03/09 01:21:33;;;;;;;14.77;10.20;;;1.20;99.90;;;0.91;82.13;98247.94;6287491;22;20169;-69
2023/03/09 01:24:01;;;;;;;15.23;10.60;;;1.20;99.90;;;0.91;82.07;98247.94;6287600;22;20176;-68
2023/03/09 01:26:30;;;;;;;15.93;10.87;;;1.20;99.90;;;0.91;82.11;98246.25;6287417;22;20172;-68
2023/03/09 01:29:01;;;;;;;14.53;10.37;;;1.20;99.90;;;0.87;82.48;98247.09;6287769;22;20192;-67
2023/03/09 01:31:30;;;;;;;15.00;10.53;;;1.20;99.90;;;0.91;81.87;98253.84;6288019;22;20169;-68
2023/03/09 01:33:58;;;;;;;18.47;10.07;;;1.20;99.90;;;0.90;81.81;98242.03;6288511;22;20176;-68
2023/03/09 01:36:27;;;;;;;15.00;10.20;;;1.20;99.90;;;0.89;82.26;98242.91;6287514;22;20196;-69
2023/03/09 01:38:55;;;;;;;16.40;10.13;;;1.20;99.90;;;0.85;82.12;98243.75;6288065;22;20499;-67
2023/03/09 01:41:24;;;;;;;15.20;10.27;;;1.20;99.90;;;0.85;82.15;98243.75;6288331;22;20200;-68
2023/03/09 01:43:53;;;;;;;17.93;10.80;;;1.20;99.90;;;0.84;82.19;98246.28;6288345;22;20172;-69
2023/03/09 01:46:47;;;;;;;14.60;10.17;;;1.20;99.90;;;0.80;82.32;98250.50;6287924;22;20191;-69
2023/03/09 01:49:33;;;;;;;16.80;10.00;;;1.20;99.90;;;0.81;82.46;98248.81;6288582;22;20187;-67
2023/03/09 01:52:10;;;;;;;14.53;9.33;;;1.10;99.90;;;0.79;81.92;98243.75;6287417;22;20160;-67
2023/03/09 01:54:44;;;;;;;12.47;9.77;;;1.10;99.90;;;0.80;82.49;98242.91;6288677;22;20157;-68
2023/03/09 01:57:22;;;;;;;12.87;9.20;;;1.10;99.90;;;0.83;82.09;98249.66;6287475;22;20174;-68
2023/03/09 01:59:54;;;;;;;13.00;10.17;;;1.10;99.90;;;0.84;82.03;98246.28;6288209;22;20594;-68
2023/03/09 02:02:31;;;;;;;15.20;10.07;;;1.20;99.90;;;0.82;81.89;98245.44;6288000;22;20173;-67
2023/03/09 02:05:05;;;;;;;14.77;9.20;;;1.10;99.90;;;0.81;82.45;98252.22;6288241;22;20191;-69
2023/03/09 02:07:37;;;;;;;14.60;9.93;;;1.10;99.90;;;0.81;82.68;98251.34;6288109;22;20555;-69
2023/03/09 02:10:12;;;;;;;13.37;9.07;;;1.10;99.90;;;0.79;82.59;98241.22;6288887;22;20218;-67
2023/03/09 02:12:42;;;;;;;13.37;9.33;;;1.10;99.90;;;0.80;82.34;98247.13;6288150;22;20664;-69
2023/03/09 02:15:11;;;;;;;14.37;10.20;;;1.10;99.90;;;0.77;81.80;98245.44;6286948;22;20196;-67
2023/03/09 02:17:41;;;;;;;13.20;9.60;;;1.10;99.90;;;0.79;82.59;98242.91;6287939;22;20180;-68
2023/03/09 02:20:19;;;;;;;14.77;9.90;;;1.10;99.90;;;0.76;82.35;98250.50;6286619;22;20188;-67
2023/03/09 02:22:49;;;;;;;12.80;9.60;;;1.10;99.90;;;0.77;82.71;98254.72;6287540;22;20618;-69
2023/03/09 02:25:27;;;;;;;14.20;10.87;;;1.10;99.90;;;0.76;82.72;98251.34;6287911;22;20516;-70
2023/03/09 02:27:59;;;;;;;14.27;9.00;;;1.10;99.90;;;0.77;82.74;98254.72;6288034;22;20191;-69
2023/03/09 02:30:31;;;;;;;14.70;9.73;;;1.10;99.90;;;0.78;82.70;98259.81;6286780;22;20271;-69
2023/03/09 02:33:09;;;;;;;13.90;9.50;;;1.10;99.90;;;0.78;82.57;98254.75;6286911;22;20167;-68
2023/03/09 02:35:38;;;;;;;15.50;10.40;;;1.10;99.90;;;0.80;82.57;98260.63;6286582;22;20188;-68
2023/03/09 02:38:12;;;;;;;14.77;10.30;;;1.10;99.90;;;0.81;82.49;98256.41;6286559;22;20201;-68
2023/03/09 02:40:41;;;;;;;14.40;9.10;;;1.10;99.90;;;0.79;82.54;98253.88;6287122;22;20253;-69
2023/03/09 02:43:12;;;;;;;18.33;10.57;;;1.10;99.90;;;0.78;82.61;98259.81;6287163;22;20648;-68
2023/03/09 02:45:40;;;;;;;13.60;10.23;;;1.10;99.90;;;0.78;82.55;98257.28;6286738;22;20160;-68
2023/03/09 02:48:09;;;;;;;17.93;10.77;;;1.10;99.90;;;0.78;82.44;98262.34;6285716;22;20231;-69
2023/03/09 02:50:38;;;;;;;14.93;10.13;;;1.10;99.90;;;0.75;82.14;98257.28;6285977;22;20176;-68
2023/03/09 02:53:06;;;;;;;16.93;9.87;;;1.10;99.90;;;0.76;82.50;98255.59;6287185;22;20169;-68
2023/03/09 02:55:35;;;;;;;15.17;10.70;;;1.10;99.90;;;0.76;82.59;98247.97;6287043;22;20207;-67
2023/03/09 02:58:04;;;;;;;13.13;9.17;;;1.10;99.90;;;0.78;82.01;98242.06;6287205;22;20173;-68
2023/03/09 03:00:34;;;;;;;15.73;11.07;;;1.10;99.90;;;0.78;82.17;98243.75;6287480;22;20180;-68
2023/03/09 03:03:02;;;;;;;15.70;10.27;;;1.10;99.90;;;0.76;81.95;98240.38;6286611;22;20173;-73
2023/03/09 03:05:31;;;;;;;14.53;10.07;;;1.10;99.90;;;0.73;82.33;98239.50;6277573;22;20173;-74
2023/03/09 03:07:59;;;;;;;16.20;10.20;;;1.00;99.90;;;0.73;82.04;98239.50;6278136;22;20168;-73
2023/03/09 03:10:28;;;;;;;13.23;9.30;;;1.10;99.90;;;0.72;82.33;98242.91;6278655;22;20246;-72
2023/03/09 03:12:56;;;;;;;16.00;10.37;;;1.00;99.90;;;0.71;82.30;98240.38;6278035;22;20176;-73
2023/03/09 03:15:25;;;;;;;15.03;10.33;;;1.00;99.90;;;0.67;81.82;98253.91;6278476;22;20622;-74
2023/03/09 03:17:55;;;;;;;13.23;8.77;;;1.00;99.90;;;0.65;81.90;98245.44;6277507;22;20177;-73
2023/03/09 03:20:23;;;;;;;15.57;10.43;;;0.90;99.90;;;0.61;81.73;98247.16;6278116;22;20176;-72
2023/03/09 03:22:53;;;;;;;13.00;9.13;;;0.90;99.90;;;0.62;82.31;98265.72;6278425;22;20649;-74
2023/03/09 03:25:22;;;;;;;13.70;9.90;;;0.90;99.90;;;0.63;82.23;98267.44;6278405;22;20184;-74
2023/03/09 03:27:50;;;;;;;13.40;9.30;;;0.90;99.90;;;0.59;81.97;98261.53;6277702;22;20252;-74
2023/03/09 03:30:19;;;;;;;12.00;8.47;;;0.90;99.90;;;0.58;81.89;98269.09;6277478;22;20173;-74
2023/03/09 03:32:52;;;;;;;11.77;8.83;;;0.90;99.90;;;0.53;81.83;98265.75;6284450;22;20536;-68
2023/03/09 03:35:22;;;;;;;13.67;9.23;;;0.90;99.90;;;0.52;82.13;98274.19;6286998;22;20211;-68
2023/03/09 03:37:51;;;;;;;13.40;8.93;;;0.80;99.90;;;0.49;81.62;98259.84;6286443;22;20261;-69
2023/03/09 03:40:20;;;;;;;13.27;8.60;;;0.80;99.90;;;0.48;81.85;98261.53;6287535;22;20311;-68
2023/03/09 03:42:48;;;;;;;14.27;9.40;;;0.90;99.90;;;0.46;81.62;98259.81;6287615;22;20473;-69
2023/03/09 03:45:17;;;;;;;16.37;9.00;;;0.80;99.90;;;0.44;82.16;98272.50;6287937;22;20185;-69
2023/03/09 03:47:45;;;;;;;13.33;8.17;;;0.80;99.90;;;0.46;81.98;98273.34;6297779;22;20157;-69
2023/03/09 03:50:13;;;;;;;11.33;7.83;;;0.80;99.90;;;0.45;82.06;98278.41;6302673;22;20229;-69
2023/03/09 03:52:43;;;;;;;12.27;7.97;;;0.80;99.90;;;0.39;81.70;98281.78;6302404;22;20161;-69
2023/03/09 03:55:12;;;;;;;9.53;7.33;;;0.80;99.90;;;0.38;81.74;98287.69;6302210;22;20191;-71
2023/03/09 03:57:40;;;;;;;12.23;7.70;;;0.80;99.90;;;0.39;81.81;98293.59;6302226;22;20213;-69
2023/03/09 04:00:11;;;;;;;11.00;7.67;;;0.80;99.90;;;0.39;81.67;98298.66;6302368;22;20157;-69
2023/03/09 04:02:40;;;;;;;11.20;7.33;;;0.70;99.90;;;0.38;81.42;98299.53;6303038;22;20211;-70
2023/03/09 04:05:09;;;;;;;9.77;6.77;;;0.80;99.90;;;0.38;81.60;98287.69;6304192;22;20165;-68
2023/03/09 04:07:37;;;;;;;10.33;7.20;;;0.70;99.90;;;0.40;81.38;98286.00;6304053;22;20180;-70
2023/03/09 04:10:09;;;;;;;10.67;6.90;;;0.80;99.90;;;0.40;81.07;98296.13;6303851;22;20730;-69
2023/03/09 04:12:38;;;;;;;9.53;6.90;;;0.80;99.90;;;0.38;81.27;98292.75;6303990;22;20191;-69
2023/03/09 04:15:07;;;;;;;9.73;6.13;;;0.70;99.90;;;0.40;81.20;98298.66;6304144;22;20616;-70
2023/03/09 04:17:36;;;;;;;11.63;6.40;;;0.70;99.90;;;0.42;81.02;98302.06;6284413;22;20197;-66
2023/03/09 04:20:05;;;;;;;9.17;7.07;;;0.80;99.90;;;0.41;80.88;98292.75;6279307;22;20172;-68
2023/03/09 04:22:34;;;;;;;9.30;6.60;;;0.80;99.90;;;0.40;80.65;98296.13;6279729;22;20618;-68
2023/03/09 04:25:03;;;;;;;11.43;6.50;;;0.80;99.90;;;0.40;80.22;98286.00;6279408;22;20637;-68
2023/03/09 04:27:32;;;;;;;8.87;6.40;;;0.80;99.90;;;0.41;81.05;98282.63;6279108;22;20177;-67
2023/03/09 04:30:01;;;;;;;11.00;7.13;;;0.70;99.90;;;0.41;80.82;98282.63;6279243;22;20196;-73
2023/03/09 04:32:30;;;;;;;10.50;6.40;;;0.80;99.90;;;0.41;80.56;98281.78;6279077;22;20665;-73
2023/03/09 04:34:59;;;;;;;10.57;6.83;;;0.80;99.90;;;0.43;80.53;98285.16;6278776;22;20207;-73
2023/03/09 04:37:28;;;;;;;13.47;7.37;;;0.80;99.90;;;0.41;80.62;98285.16;6278244;22;20200;-67
2023/03/09 04:39:56;;;;;;;10.80;7.63;;;0.80;99.90;;;0.42;80.95;98286.84;6277941;22;20172;-67
2023/03/09 04:42:25;;;;;;;11.87;7.73;;;0.80;99.90;;;0.43;80.91;98293.59;6279081;22;20183;-67
2023/03/09 04:44:55;;;;;;;10.37;7.47;;;0.80;99.90;;;0.44;80.59;98307.09;6278654;22;20177;-67
2023/03/09 04:47:24;;;;;;;12.53;7.43;;;0.80;99.90;;;0.47;80.97;98304.56;6279248;22;20183;-66
2023/03/09 04:49:53;;;;;;;10.67;7.73;;;0.80;99.90;;;0.47;80.63;98310.47;6285779;22;20234;-69
2023/03/09 04:52:21;;;;;;;13.17;7.57;;;0.80;99.90;;;0.46;81.04;98306.28;6290090;22;20203;-71
2023/03/09 04:54:50;;;;;;;12.33;7.80;;;0.80;99.90;;;0.47;80.60;98302.88;6288765;22;20173;-68
2023/03/09 04:57:18;;;;;;;13.03;7.87;;;0.80;99.90;;;0.50;80.68;98304.59;6294025;22;20181;-68
2023/03/09 04:59:46;;;;;;;13.60;8.30;;;0.80;99.90;;;0.48;80.43;98306.28;6281248;22;20169;-74
2023/03/09 05:02:16;;;;;;;9.40;7.07;;;0.80;99.90;;;0.45;80.17;98309.66;6279146;22;20168;-73
2023/03/09 05:04:46;;;;;;;11.03;7.77;;;0.80;99.90;;;0.43;80.13;98302.88;6279157;22;20177;-72
2023/03/09 05:07:15;;;;;;;11.60;7.80;;;0.80;99.90;;;0.41;80.48;98295.31;6303783;22;20180;-68
2023/03/09 05:09:43;;;;;;;12.97;7.67;;;0.80;99.90;;;0.39;80.62;98289.38;6304132;22;20208;-71
2023/03/09 05:12:12;;;;;;;13.23;8.03;;;0.80;99.90;;;0.35;80.56;98287.69;6292646;22;20660;-68
2023/03/09 05:14:41;;;;;;;11.47;8.07;;;0.70;99.90;;;0.35;80.49;98282.63;6279615;22;20172;-69
2023/03/09 05:17:09;;;;;;;9.53;7.10;;;0.70;99.90;;;0.36;80.32;98294.44;6279398;22;20197;-67
2023/03/09 05:19:39;;;;;;;10.73;7.83;;;0.70;99.90;;;0.36;80.66;98299.50;6278974;22;20181;-66
2023/03/09 05:22:07;;;;;;;13.70;8.73;;;0.70;99.90;;;0.32;80.50;98295.28;6279547;22;20184;-73
2023/03/09 05:24:36;;;;;;;13.87;9.07;;;0.70;99.90;;;0.32;80.43;98307.09;6278186;22;20438;-73
2023/03/09 05:27:04;;;;;;;14.23;9.30;;;0.70;99.90;;;0.30;80.49;98301.22;6278616;22;20191;-73
2023/03/09 05:29:33;;;;;;;16.77;9.73;;;0.70;99.90;;;0.27;80.55;98299.50;6278909;22;20604;-74
2023/03/09 05:32:01;;;;;;;15.23;9.03;;;0.60;99.90;;;0.27;80.73;98299.50;6278827;22;20231;-74
2023/03/09 05:34:30;;;;;;;14.60;9.70;;;0.70;99.90;;;0.26;80.28;98314.69;6278592;22;20172;-73
2023/03/09 05:37:00;;;;;;;14.50;9.73;;;0.60;99.90;;;0.27;80.48;98312.16;6277920;22;20258;-74
2023/03/09 05:39:29;;;;;;;17.13;9.87;;;0.60;99.90;;;0.28;80.22;98315.53;6278258;22;20172;-73
2023/03/09 05:41:58;;;;;;;14.87;9.37;;;0.70;99.90;;;0.26;80.35;98307.94;6277927;22;20540;-74
2023/03/09 05:44:26;;;;;;;14.37;9.40;;;0.60;99.90;;;0.26;79.76;98313.03;6284252;22;20169;-70
2023/03/09 05:46:55;;;;;;;12.23;8.90;;;0.60;99.90;;;0.22;80.18;98311.28;6289778;22;20627;-68
2023/03/09 05:49:27;;;;;;;16.23;10.20;;;0.60;99.90;;;0.23;80.40;98313.00;6289132;22;20242;-68
2023/03/09 05:51:56;;;;;;;13.13;9.70;;;0.60;99.90;;;0.22;80.07;98316.34;6289417;22;20165;-68
2023/03/09 05:54:26;;;;;;;13.47;9.63;;;0.60;99.90;;;0.23;80.38;98318.91;6299146;22;20181;-70
2023/03/09 05:56:54;;;;;;;14.93;9.90;;;0.60;99.90;;;0.23;80.56;98318.06;6303950;22;20153;-69
2023/03/09 05:59:23;;;;;;;15.77;10.37;;;0.60;99.90;;;0.25;80.34;98316.38;6303834;22;20165;-69
2023/03/09 06:01:52;;;;;;;15.00;9.53;;;0.60;99.90;;;0.24;80.65;98319.75;6302988;22;20173;-69
2023/03/09 06:04:20;;;;;;;12.83;9.27;;;0.60;99.90;;;0.24;80.55;98317.22;6302858;22;20196;-70
2023/03/09 06:06:48;;;;;;;13.43;10.60;;;0.60;99.90;;;0.22;80.71;98321.44;6303382;22;20156;-69
2023/03/09 06:09:17;;;;;;;14.13;9.17;;;0.60;99.90;;;0.23;80.58;98323.97;6302998;22;20203;-70
2023/03/09 06:11:48;;;;;;;13.40;9.70;;;0.60;99.90;;;0.23;80.27;98330.75;6303521;22;20177;-70
2023/03/09 06:14:17;;;;;;;13.87;9.20;;;0.60;99.90;;;0.24;80.56;98335.78;6303011;22;20182;-69
2023/03/09 06:16:45;;;;;;;13.50;9.10;;;0.60;99.90;;;0.23;80.41;98339.19;6302755;22;20199;-70
2023/03/09 06:19:14;;;;;;;14.07;9.47;;;0.60;99.90;;;0.20;80.25;98334.09;6302695;22;20208;-70
2023/03/09 06:21:42;;;;;;;14.77;9.77;;;0.60;99.90;;;0.20;80.32;98328.19;6302831;22;20183;-70
2023/03/09 06:24:11;;;;;;;17.13;8.77;;;0.60;99.90;;;0.19;80.51;98340.00;6302780;22;20188;-69
2023/03/09 06:26:40;;;;;;;12.57;8.13;;;0.60;99.90;;;0.19;80.28;98346.78;6302262;22;20153;-74
2023/03/09 06:29:10;;;;;;;12.03;8.27;;;0.60;99.90;;;0.16;80.26;98341.69;6277635;22;20230;-74
2023/03/09 06:31:39;;;;;;;14.30;8.63;;;0.50;99.90;;;0.15;80.54;98334.94;6277564;22;20230;-73
2023/03/09 06:34:07;;;;;;;10.97;8.50;;;0.50;99.90;;;0.16;80.89;98336.63;6276967;22;20176;-72
2023/03/09 06:36:36;;;;;;;15.30;8.77;;;0.60;99.90;;;0.19;80.84;98341.72;6279269;22;20176;-74
2023/03/09 06:39:05;;;;;;;9.17;6.80;;;0.60;99.90;;;0.24;81.02;98343.38;6277023;22;20585;-75
2023/03/09 06:41:33;;;;;;;11.93;8.57;;;0.60;99.90;;;0.30;81.07;98344.25;6277032;22;20200;-74
2023/03/09 06:44:02;;;;;;;11.83;8.10;;;0.70;99.90;;;0.34;80.47;98351.88;6277812;22;20177;-73
2023/03/09 06:46:32;;;;;;;9.13;7.30;;;0.70;99.90;;;0.38;80.49;98353.56;6277156;22;20195;-75
2023/03/09 06:49:01;;;;;;;15.80;7.90;;;0.70;99.90;;;0.38;80.07;98356.09;6277364;22;20169;-75
2023/03/09 06:51:29;;;;;;;12.63;8.60;;;0.80;99.90;;;0.41;80.36;98348.50;6277972;22;20246;-74
2023/03/09 06:53:58;;;;;;;11.60;7.87;;;0.80;99.90;;;0.45;80.71;98347.66;6277847;22;20496;-74
2023/03/09 06:56:26;;;;;;;13.00;8.47;;;0.80;99.90;;;0.45;80.26;98350.19;6277656;22;20692;-72
2023/03/09 06:58:55;;;;;;;15.43;8.13;;;0.80;99.90;;;0.46;80.16;98339.22;6277019;22;20266;-74
2023/03/09 07:01:24;;;;;;;12.83;9.00;;;0.80;99.90;;;0.49;80.42;98335.84;6277138;22;20199;-75
2023/03/09 07:03:54;;;;;;;12.37;8.43;;;0.90;99.90;;;0.51;80.29;98340.91;6277397;22;20195;-74
2023/03/09 07:06:23;;;;;;;11.60;8.03;;;0.90;99.90;;;0.48;80.25;98342.59;6277870;22;20241;-74
2023/03/09 07:08:51;;;;;;;11.43;7.77;;;0.90;99.90;;;0.46;79.73;98331.59;6277888;22;20177;-73
2023/03/09 07:11:19;;;;;;;12.33;8.77;;;0.80;99.90;;;0.44;79.87;98340.03;6278516;22;20246;-73
2023/03/09 07:13:48;;;;;;;11.67;7.87;;;0.80;99.90;;;0.44;79.90;98335.84;6277466;22;20648;-73
2023/03/09 07:16:16;;;;;;;13.83;8.37;;;0.80;99.90;;;0.41;79.62;98328.25;6278509;22;20176;-73
2023/03/09 07:18:45;;;;;;;11.07;8.03;;;0.80;99.90;;;0.40;79.88;98334.13;6277416;22;20243;-74
2023/03/09 07:21:16;;;;;;;10.30;8.20;;;0.80;99.90;;;0.44;79.72;98352.72;6277186;22;20231;-74
2023/03/09 07:23:44;;;;;;;11.63;8.30;;;0.80;99.90;;;0.44;79.82;98342.56;6277244;22;20161;-74
2023/03/09 07:26:13;;;;;;;11.63;7.63;;;0.80;99.90;;;0.44;79.57;98345.97;6276292;22;20169;-75
2023/03/09 07:28:41;;;;;;;10.63;7.60;;;0.80;99.90;;;0.47;78.90;98348.50;6275983;22;20199;-74
2023/03/09 07:31:11;;;;;;;13.53;8.37;;;0.90;99.90;;;0.50;78.78;98344.28;6276277;22;20179;-74
2023/03/09 07:33:40;;;;;;;12.73;7.93;;;0.90;99.90;;;0.47;79.03;98340.88;6282987;22;20169;-69
2023/03/09 07:36:10;;;;;;;13.70;8.20;;;0.90;99.90;;;0.48;79.03;98352.75;6288410;22;20169;-68
2023/03/09 07:38:40;;;;;;;13.07;8.53;;;0.90;99.90;;;0.47;78.98;98347.66;6290507;22;20227;-68
2023/03/09 07:41:08;;;;;;;10.90;7.97;;;0.80;99.90;;;0.50;78.86;98349.34;6291605;22;20204;-69
2023/03/09 07:43:43;;;;;;;11.60;8.23;;;0.90;99.90;;;0.50;78.91;98351.88;6290454;22;20169;-69
2023/03/09 07:46:13;;;;;;;10.73;7.97;;;0.90;99.90;;;0.52;78.42;98360.34;6290990;22;20160;-69
2023/03/09 07:48:42;;;;;;;10.30;7.43;;;0.90;99.90;;;0.50;78.54;98352.72;6290116;22;20177;-69
2023/03/09 07:51:13;;;;;;;10.77;7.50;;;0.90;99.90;;;0.50;78.32;98356.94;6290480;22;20203;-70
2023/03/09 07:53:43;;;;;;;12.23;7.90;;;0.90;99.90;;;0.54;78.94;98358.66;6291010;22;20161;-69
2023/03/09 07:56:12;;;;;;;11.33;8.07;;;0.90;99.90;;;0.58;78.50;98362.88;6289896;22;20173;-69
2023/03/09 07:58:41;;;;;;;9.97;7.50;;;1.00;99.90;;;0.60;78.34;98364.56;6290328;22;20196;-67
2023/03/09 08:01:16;;;;;;;10.67;7.50;;;1.00;99.90;;;0.63;77.82;98358.66;6289034;22;20179;-68
2023/03/09 08:03:45;;;;;;;9.77;7.13;;;1.00;99.90;;;0.67;78.17;98358.66;6290040;22;20160;-68
2023/03/09 08:06:15;;;;;;;11.63;8.30;;;1.10;99.90;;;0.71;78.04;98362.06;6292965;22;20199;-70
2023/03/09 08:08:45;;;;;;;9.37;6.90;;;1.10;99.90;;;0.76;77.89;98360.34;6302522;22;20173;-71
2023/03/09 08:11:14;;;;;;;10.97;7.50;;;1.10;99.90;;;0.79;78.14;98367.97;6302923;22;20164;-71
2023/03/09 08:13:43;;;;;;;13.53;7.17;;;1.20;99.90;;;0.83;77.94;98377.25;6302904;22;20176;-71
2023/03/09 08:16:12;;;;;;;11.90;7.20;;;1.20;99.90;;;0.81;77.05;98371.34;6302938;22;20173;-70
2023/03/09 08:18:41;;;;;;;7.93;6.50;;;1.20;99.90;;;0.80;77.49;98372.19;6302776;22;20177;-70
2023/03/09 08:21:13;;;;;;;10.10;7.10;;;1.10;99.90;;;0.76;77.64;98360.34;6302978;22;20167;-70
2023/03/09 08:23:43;;;;;;;10.30;7.30;;;1.20;99.90;;;0.80;77.54;98363.72;6304121;22;20161;-71
2023/03/09 08:26:16;;;;;;;9.07;6.77;;;1.20;99.90;;;0.85;77.55;98370.50;6302837;22;20181;-70
2023/03/09 08:28:46;;;;;;;10.60;7.30;;;1.30;99.90;;;0.92;77.33;98367.13;6303759;22;20197;-72
2023/03/09 08:31:17;;;;;;;11.30;6.70;;;1.30;99.90;;;0.98;77.30;98373.03;6303228;22;20199;-69
2023/03/09 08:33:46;;;;;;;9.13;7.40;;;1.40;99.90;;;1.03;76.99;98364.59;6303346;22;20214;-70
2023/03/09 08:36:21;;;;;;;8.70;6.33;;;1.40;99.90;;;1.08;76.90;98362.06;6302932;22;20232;-70
2023/03/09 08:38:50;;;;;;;10.20;6.67;;;1.50;99.90;;;1.14;77.02;98373.03;6302933;22;20188;-70
2023/03/09 08:41:21;;;;;;;10.00;6.73;;;1.60;99.90;;;1.19;76.46;98373.88;6302858;22;20199;-70
2023/03/09 08:43:51;;;;;;;9.37;7.40;;;1.60;99.90;;;1.25;76.35;98364.56;6299185;22;20161;-70
2023/03/09 08:46:20;;;;;;;9.77;6.90;;;1.60;99.90;;;1.31;76.87;98365.38;6287764;22;20218;-70
2023/03/09 08:48:49;;;;;;;11.00;6.87;;;1.70;99.90;;;1.37;76.30;98355.25;6279250;22;20230;-74
2023/03/09 08:51:18;;;;;;;11.50;7.03;;;1.80;99.90;;;1.44;76.13;98351.84;6279381;22;20223;-74
2023/03/09 08:53:47;;;;;;;10.00;7.33;;;1.80;99.90;;;1.46;75.46;98349.28;6278598;22;20173;-68
2023/03/09 08:56:15;;;;;;;14.17;6.60;;;1.90;99.90;;;1.51;76.05;98356.88;6278521;22;20173;-68
2023/03/09 08:58:47;;;;;;;10.30;6.53;;;1.90;99.90;;;1.52;76.13;98349.28;6278475;22;20436;-68
2023/03/09 09:01:16;;;;;;;8.27;6.33;;;1.90;99.90;;;1.57;75.91;98351.81;6278963;22;20474;-69
2023/03/09 09:03:44;;;;;;;7.67;6.00;;;2.00;99.90;;;1.64;75.42;98351.78;6278536;22;20187;-67
2023/03/09 09:06:16;;;;;;;6.77;6.00;;;2.10;99.90;;;1.67;75.59;98350.94;6278533;22;20176;-69
2023/03/09 09:08:44;;;;;;;9.57;6.13;;;2.10;99.90;;;1.70;75.06;98350.94;6278288;22;20468;-69
2023/03/09 09:11:15;;;;;;;8.33;6.57;;;2.10;99.90;;;1.67;75.52;98359.38;6278206;22;20203;-69
2023/03/09 09:13:46;;;;;;;9.10;6.30;;;2.10;99.90;;;1.67;75.01;98350.94;6282447;22;20194;-69
2023/03/09 09:16:16;;;;;;;10.17;5.50;;;2.10;99.90;;;1.62;74.93;98357.69;6287011;22;20176;-70
2023/03/09 09:18:45;;;;;;;7.73;6.00;;;2.00;99.90;;;1.56;75.10;98358.56;6286356;22;20286;-69
2023/03/09 09:21:17;;;;;;;6.87;5.50;;;2.00;99.90;;;1.54;75.20;98361.97;6287341;22;20677;-69
2023/03/09 09:23:46;;;;;;;8.97;5.63;;;2.00;99.90;;;1.51;75.75;98367.03;6286214;22;20248;-69
2023/03/09 09:26:15;;;;;;;7.70;5.10;;;1.90;99.90;;;1.45;75.02;98376.38;6287761;22;20173;-69
2023/03/09 09:28:46;;;;;;;7.33;5.73;;;1.80;99.90;;;1.36;75.34;98371.31;6287290;22;20204;-69
2023/03/09 09:31:19;;;;;;;7.63;3.97;;;1.80;99.90;;;1.31;75.27;98370.47;6287234;22;20204;-69
2023/03/09 09:33:48;;;;;;;7.10;4.70;;;1.70;99.90;;;1.24;74.59;98378.09;6288757;22;20183;-69
2023/03/09 09:36:19;;;;;;;6.77;4.33;;;1.60;99.90;;;1.20;75.04;98379.78;6289764;22;20180;-69
2023/03/09 09:38:48;;;;;;;5.47;4.33;;;1.60;99.90;;;1.16;74.76;98375.56;6288018;22;20161;-69
2023/03/09 09:41:24;;;;;;;6.60;5.13;;;1.60;99.90;;;1.15;75.15;98379.78;6287685;22;20274;-67
2023/03/09 09:43:58;;;;;;;6.13;4.50;;;1.60;99.90;;;1.22;75.33;98384.88;6286343;22;20479;-69
2023/03/09 09:46:29;;;;;;;6.63;4.93;;;1.70;99.90;;;1.30;75.85;98395.84;6287479;22;20195;-69
2023/03/09 09:49:00;;;;;;;5.27;4.40;;;1.70;99.90;;;1.30;75.44;98396.69;6286448;22;20177;-68
2023/03/09 09:52:00;;;;;;;4.90;4.00;;;1.70;99.90;;;1.28;74.96;98395.00;6286498;22;20156;-69
2023/03/09 09:54:39;;;;;;;8.57;5.73;;;1.70;99.90;;;1.29;74.98;98402.63;6286128;22;20172;-69
2023/03/09 09:57:15;;;;;;;4.37;3.73;;;1.70;99.90;;;1.34;75.46;98400.91;6287013;22;20165;-68
2023/03/09 09:59:56;;;;;;;8.03;4.67;;;1.80;99.90;;;1.42;75.02;98404.28;6286268;22;20181;-69
2023/03/09 10:02:48;;;;;;;6.53;4.17;;;1.80;99.90;;;1.44;74.75;98395.00;6287561;22;20165;-68
2023/03/09 10:05:25;;;;;;;5.07;4.50;;;1.80;99.90;;;1.44;74.44;98405.13;6287378;22;20161;-68
2023/03/09 10:07:56;;;;;;;5.47;3.87;;;1.80;99.90;;;1.45;75.12;98400.91;6286716;22;20165;-70
2023/03/09 10:10:30;;;;;;;6.23;4.60;;;1.90;99.90;;;1.46;74.41;98410.19;6286727;22;20253;-68
2023/03/09 10:13:04;;;;;;;7.73;4.43;;;1.80;99.90;;;1.47;74.82;98411.03;6287364;22;20194;-70
2023/03/09 10:15:36;;;;;;;6.00;4.60;;;1.90;99.90;;;1.49;74.54;98414.44;6287166;22;20179;-69
2023/03/09 10:18:10;;;;;;;4.63;3.63;;;1.90;99.90;;;1.47;73.96;98422.03;6287324;22;20169;-70
2023/03/09 10:20:43;;;;;;;5.40;4.00;;;1.90;99.90;;;1.46;74.79;98415.28;6287535;22;20185;-68
2023/03/09 10:23:21;;;;;;;4.73;4.17;;;1.90;99.90;;;1.50;74.92;98403.44;6285377;22;20160;-74
2023/03/09 10:25:53;;;;;;;6.07;4.20;;;1.90;99.90;;;1.56;74.61;98419.50;6277036;22;20191;-74
2023/03/09 10:28:26;;;;;;;4.60;3.90;;;2.00;99.90;;;1.58;73.78;98420.31;6277697;22;20189;-75
2023/03/09 10:31:03;;;;;;;5.07;3.73;;;2.00;99.90;;;1.68;74.25;98418.63;6277409;22;20161;-74
2023/03/09 10:33:43;;;;;;;6.50;4.37;;;2.10;99.90;;;1.82;73.81;98424.50;6276914;22;20161;-74
2023/03/09 10:36:21;;;;;;;5.00;3.87;;;2.20;99.90;;;1.97;73.68;98418.53;6276856;22;20628;-74
2023/03/09 10:38:50;;;;;;;6.07;3.63;;;2.40;99.90;;;2.07;72.98;98429.53;6277180;22;20161;-75